sensor_id;sensor_type;location;lat;lon;timestamp;temperature;humidity
4828;DHT22;2428;48.732;9.148;2022-12-07T00:01:13;4.00;99.90
4828;DHT22;2428;48.732;9.148;2022-12-07T00:03:40;4.00;99.90
4828;DHT22;2428;48.732;9.148;2022-12-07T00:06:07;4.00;99.90
4828;DHT22;2428;48.732;9.148;2022-12-07T00:08:34;4.00;99.90
4828;DHT22;2428;48.732;9.148;2022-12-07T00:11:04;4.00;99.90
4828;DHT22;2428;48.732;9.148;2022-12-07T00:13:30;4.00;99.90
4828;DHT22;2428;48.732;9.148;2022-12-07T00:16:03;4.00;99.90
4828;DHT22;2428;48.732;9.148;2022-12-07T00:18:30;4.00;99.90
4828;DHT22;2428;48.732;9.148;2022-12-07T00:21:25;4.00;99.90
4828;DHT22;2428;48.732;9.148;2022-12-07T00:23:52;4.00;99.90
4828;DHT22;2428;48.732;9.148;2022-12-07T00:26:21;3.90;99.90
4828;DHT22;2428;48.732;9.148;2022-12-07T00:28:49;3.90;99.90
4828;DHT22;2428;48.732;9.148;2022-12-07T00:31:17;4.00;99.90
4828;DHT22;2428;48.732;9.148;2022-12-07T00:33:43;4.00;99.90
4828;DHT22;2428;48.732;9.148;2022-12-07T00:36:12;3.90;99.90
4828;DHT22;2428;48.732;9.148;2022-12-07T00:38:38;3.90;99.90
4828;DHT22;2428;48.732;9.148;2022-12-07T00:41:06;3.80;99.90
4828;DHT22;2428;48.732;9.148;2022-12-07T00:43:33;3.80;99.90
4828;DHT22;2428;48.732;9.148;2022-12-07T00:45:59;3.80;99.90
4828;DHT22;2428;48.732;9.148;2022-12-07T00:48:25;3.80;99.90
4828;DHT22;2428;48.732;9.148;2022-12-07T00:50:50;3.80;99.90
4828;DHT22;2428;48.732;9.148;2022-12-07T00:53:17;3.80;99.90
4828;DHT22;2428;48.732;9.148;2022-12-07T00:55:44;3.80;99.90
4828;DHT22;2428;48.732;9.148;2022-12-07T00:58:10;3.80;99.90
4828;DHT22;2428;48.732;9.148;2022-12-07T01:00:39;3.80;99.90
4828;DHT22;2428;48.732;9.148;2022-12-07T01:03:05;3.80;99.90
4828;DHT22;2428;48.732;9.148;2022-12-07T01:05:31;3.80;99.90
4828;DHT22;2428;48.732;9.148;2022-12-07T01:07:57;3.80;99.90
4828;DHT22;2428;48.732;9.148;2022-12-07T01:10:22;3.80;99.90
4828;DHT22;2428;48.732;9.148;2022-12-07T01:12:48;3.80;99.90
4828;DHT22;2428;48.732;9.148;2022-12-07T01:15:14;3.80;99.90
4828;DHT22;2428;48.732;9.148;2022-12-07T01:17:39;3.80;99.90
4828;DHT22;2428;48.732;9.148;2022-12-07T01:20:05;3.80;99.90
4828;DHT22;2428;48.732;9.148;2022-12-07T01:22:32;3.70;99.90
4828;DHT22;2428;48.732;9.148;2022-12-07T01:25:01;3.70;99.90
4828;DHT22;2428;48.732;9.148;2022-12-07T01:27:27;3.70;99.90
4828;DHT22;2428;48.732;9.148;2022-12-07T01:29:52;3.70;99.90
4828;DHT22;2428;48.732;9.148;2022-12-07T01:32:18;3.70;99.90
4828;DHT22;2428;48.732;9.148;2022-12-07T01:34:43;3.70;99.90
4828;DHT22;2428;48.732;9.148;2022-12-07T01:37:09;3.80;99.90
4828;DHT22;2428;48.732;9.148;2022-12-07T01:39:34;3.70;99.90
4828;DHT22;2428;48.732;9.148;2022-12-07T01:42:00;3.80;99.90
4828;DHT22;2428;48.732;9.148;2022-12-07T01:44:30;3.80;99.90
4828;DHT22;2428;48.732;9.148;2022-12-07T01:46:59;3.70;99.90
4828;DHT22;2428;48.732;9.148;2022-12-07T01:49:38;3.80;99.90
4828;DHT22;2428;48.732;9.148;2022-12-07T01:52:28;3.70;99.90
4828;DHT22;2428;48.732;9.148;2022-12-07T01:54:59;3.70;99.90
4828;DHT22;2428;48.732;9.148;2022-12-07T01:57:26;3.70;99.90
4828;DHT22;2428;48.732;9.148;2022-12-07T01:59:52;3.70;99.90
4828;DHT22;2428;48.732;9.148;2022-12-07T02:02:43;3.70;99.90
4828;DHT22;2428;48.732;9.148;2022-12-07T02:05:06;3.70;99.90
4828;DHT22;2428;48.732;9.148;2022-12-07T02:07:34;3.70;99.90
4828;DHT22;2428;48.732;9.148;2022-12-07T02:12:44;3.70;99.90
4828;DHT22;2428;48.732;9.148;2022-12-07T02:15:12;3.70;99.90
4828;DHT22;2428;48.732;9.148;2022-12-07T02:18:05;3.70;99.90
4828;DHT22;2428;48.732;9.148;2022-12-07T02:29:11;3.70;99.90
4828;DHT22;2428;48.732;9.148;2022-12-07T02:31:44;3.70;99.90
4828;DHT22;2428;48.732;9.148;2022-12-07T02:34:20;3.70;99.90
4828;DHT22;2428;48.732;9.148;2022-12-07T02:36:55;3.70;99.90
4828;DHT22;2428;48.732;9.148;2022-12-07T02:39:38;3.70;99.90
4828;DHT22;2428;48.732;9.148;2022-12-07T02:42:15;3.70;99.90
4828;DHT22;2428;48.732;9.148;2022-12-07T02:44:43;3.60;99.90
4828;DHT22;2428;48.732;9.148;2022-12-07T02:47:12;3.60;99.90
4828;DHT22;2428;48.732;9.148;2022-12-07T02:49:39;3.60;99.90
4828;DHT22;2428;48.732;9.148;2022-12-07T02:52:05;3.70;99.90
4828;DHT22;2428;48.732;9.148;2022-12-07T02:54:31;3.70;99.90
4828;DHT22;2428;48.732;9.148;2022-12-07T03:05:05;3.70;99.90
4828;DHT22;2428;48.732;9.148;2022-12-07T03:16:35;3.70;99.90
4828;DHT22;2428;48.732;9.148;2022-12-07T03:19:06;3.70;99.90
4828;DHT22;2428;48.732;9.148;2022-12-07T03:21:37;3.70;99.90
4828;DHT22;2428;48.732;9.148;2022-12-07T03:24:12;3.70;99.90
4828;DHT22;2428;48.732;9.148;2022-12-07T03:26:41;3.70;99.90
4828;DHT22;2428;48.732;9.148;2022-12-07T03:29:12;3.70;99.90
4828;DHT22;2428;48.732;9.148;2022-12-07T03:31:43;3.70;99.90
4828;DHT22;2428;48.732;9.148;2022-12-07T03:34:29;3.70;99.90
4828;DHT22;2428;48.732;9.148;2022-12-07T03:39:40;3.60;99.90
4828;DHT22;2428;48.732;9.148;2022-12-07T03:42:10;3.60;99.90
4828;DHT22;2428;48.732;9.148;2022-12-07T03:44:36;3.60;99.90
4828;DHT22;2428;48.732;9.148;2022-12-07T03:49:57;3.60;99.90
4828;DHT22;2428;48.732;9.148;2022-12-07T03:52:45;3.60;99.90
4828;DHT22;2428;48.732;9.148;2022-12-07T03:55:23;3.60;99.90
4828;DHT22;2428;48.732;9.148;2022-12-07T03:57:53;3.60;99.90
4828;DHT22;2428;48.732;9.148;2022-12-07T04:00:20;3.60;99.90
4828;DHT22;2428;48.732;9.148;2022-12-07T04:02:45;3.50;99.90
4828;DHT22;2428;48.732;9.148;2022-12-07T04:05:12;3.50;99.90
4828;DHT22;2428;48.732;9.148;2022-12-07T04:07:38;3.40;99.90
4828;DHT22;2428;48.732;9.148;2022-12-07T04:10:04;3.30;99.90
4828;DHT22;2428;48.732;9.148;2022-12-07T04:12:30;3.30;99.90
4828;DHT22;2428;48.732;9.148;2022-12-07T04:14:56;3.30;99.90
4828;DHT22;2428;48.732;9.148;2022-12-07T04:17:21;3.20;99.90
4828;DHT22;2428;48.732;9.148;2022-12-07T04:19:47;3.20;99.90
4828;DHT22;2428;48.732;9.148;2022-12-07T04:22:12;3.20;99.90
4828;DHT22;2428;48.732;9.148;2022-12-07T04:24:38;3.20;99.90
4828;DHT22;2428;48.732;9.148;2022-12-07T04:27:04;3.20;99.90
4828;DHT22;2428;48.732;9.148;2022-12-07T04:29:29;3.20;99.90
4828;DHT22;2428;48.732;9.148;2022-12-07T04:31:55;3.10;99.90
4828;DHT22;2428;48.732;9.148;2022-12-07T04:34:21;3.10;99.90
4828;DHT22;2428;48.732;9.148;2022-12-07T04:36:46;3.10;99.90
4828;DHT22;2428;48.732;9.148;2022-12-07T04:39:28;3.10;99.90
4828;DHT22;2428;48.732;9.148;2022-12-07T04:41:54;3.10;99.90
4828;DHT22;2428;48.732;9.148;2022-12-07T04:44:21;3.10;99.90
4828;DHT22;2428;48.732;9.148;2022-12-07T04:46:47;3.10;99.90
4828;DHT22;2428;48.732;9.148;2022-12-07T04:49:13;3.00;99.90
4828;DHT22;2428;48.732;9.148;2022-12-07T04:51:40;3.00;99.90
4828;DHT22;2428;48.732;9.148;2022-12-07T04:54:06;2.90;99.90
4828;DHT22;2428;48.732;9.148;2022-12-07T04:56:31;2.90;99.90
4828;DHT22;2428;48.732;9.148;2022-12-07T04:58:57;3.00;99.90
4828;DHT22;2428;48.732;9.148;2022-12-07T05:01:23;3.00;99.90
4828;DHT22;2428;48.732;9.148;2022-12-07T05:03:49;3.00;99.90
4828;DHT22;2428;48.732;9.148;2022-12-07T05:06:15;3.10;99.90
4828;DHT22;2428;48.732;9.148;2022-12-07T05:08:41;3.10;99.90
4828;DHT22;2428;48.732;9.148;2022-12-07T05:11:08;3.10;99.90
4828;DHT22;2428;48.732;9.148;2022-12-07T05:13:35;3.00;99.90
4828;DHT22;2428;48.732;9.148;2022-12-07T05:16:01;3.00;99.90
4828;DHT22;2428;48.732;9.148;2022-12-07T05:18:27;3.00;99.90
4828;DHT22;2428;48.732;9.148;2022-12-07T05:20:53;3.10;99.90
4828;DHT22;2428;48.732;9.148;2022-12-07T05:23:18;3.10;99.90
4828;DHT22;2428;48.732;9.148;2022-12-07T05:25:44;3.10;99.90
4828;DHT22;2428;48.732;9.148;2022-12-07T05:28:10;3.10;99.90
4828;DHT22;2428;48.732;9.148;2022-12-07T05:30:36;3.20;99.90
4828;DHT22;2428;48.732;9.148;2022-12-07T05:33:02;3.20;99.90
4828;DHT22;2428;48.732;9.148;2022-12-07T05:35:28;3.30;99.90
4828;DHT22;2428;48.732;9.148;2022-12-07T05:37:54;3.30;99.90
4828;DHT22;2428;48.732;9.148;2022-12-07T05:40:19;3.30;99.90
4828;DHT22;2428;48.732;9.148;2022-12-07T05:42:45;3.20;99.90
4828;DHT22;2428;48.732;9.148;2022-12-07T05:45:11;3.20;99.90
4828;DHT22;2428;48.732;9.148;2022-12-07T05:47:36;3.20;99.90
4828;DHT22;2428;48.732;9.148;2022-12-07T05:50:03;3.20;99.90
4828;DHT22;2428;48.732;9.148;2022-12-07T05:52:29;3.10;99.90
4828;DHT22;2428;48.732;9.148;2022-12-07T05:54:54;3.10;99.90
4828;DHT22;2428;48.732;9.148;2022-12-07T05:57:20;3.10;99.90
4828;DHT22;2428;48.732;9.148;2022-12-07T05:59:45;3.10;99.90
4828;DHT22;2428;48.732;9.148;2022-12-07T06:02:13;3.00;99.90
4828;DHT22;2428;48.732;9.148;2022-12-07T06:04:44;2.90;99.90
4828;DHT22;2428;48.732;9.148;2022-12-07T06:07:12;2.80;99.90
4828;DHT22;2428;48.732;9.148;2022-12-07T06:09:39;2.80;99.90
4828;DHT22;2428;48.732;9.148;2022-12-07T06:12:05;2.80;99.90
4828;DHT22;2428;48.732;9.148;2022-12-07T06:14:49;2.90;99.90
4828;DHT22;2428;48.732;9.148;2022-12-07T06:17:15;2.90;99.90
4828;DHT22;2428;48.732;9.148;2022-12-07T06:19:41;2.90;99.90
4828;DHT22;2428;48.732;9.148;2022-12-07T06:22:08;2.90;99.90
4828;DHT22;2428;48.732;9.148;2022-12-07T06:24:34;2.90;99.90
4828;DHT22;2428;48.732;9.148;2022-12-07T06:27:00;2.90;99.90
4828;DHT22;2428;48.732;9.148;2022-12-07T06:29:26;2.90;99.90
4828;DHT22;2428;48.732;9.148;2022-12-07T06:31:51;2.90;99.90
4828;DHT22;2428;48.732;9.148;2022-12-07T06:34:19;2.90;99.90
4828;DHT22;2428;48.732;9.148;2022-12-07T06:36:46;2.90;99.90
4828;DHT22;2428;48.732;9.148;2022-12-07T06:39:20;3.00;99.90
4828;DHT22;2428;48.732;9.148;2022-12-07T06:41:46;2.90;99.90
4828;DHT22;2428;48.732;9.148;2022-12-07T06:44:12;3.00;99.90
4828;DHT22;2428;48.732;9.148;2022-12-07T06:46:38;3.00;99.90
4828;DHT22;2428;48.732;9.148;2022-12-07T06:49:04;3.00;99.90
4828;DHT22;2428;48.732;9.148;2022-12-07T06:51:31;3.00;99.90
4828;DHT22;2428;48.732;9.148;2022-12-07T06:53:57;3.10;99.90
4828;DHT22;2428;48.732;9.148;2022-12-07T06:56:23;3.10;99.90
4828;DHT22;2428;48.732;9.148;2022-12-07T06:58:49;3.00;99.90
4828;DHT22;2428;48.732;9.148;2022-12-07T07:01:17;2.80;99.90
4828;DHT22;2428;48.732;9.148;2022-12-07T07:03:44;2.80;99.90
4828;DHT22;2428;48.732;9.148;2022-12-07T07:06:11;2.70;99.90
4828;DHT22;2428;48.732;9.148;2022-12-07T07:08:37;2.70;99.90
4828;DHT22;2428;48.732;9.148;2022-12-07T07:11:04;2.80;99.90
4828;DHT22;2428;48.732;9.148;2022-12-07T07:13:30;2.70;99.90
4828;DHT22;2428;48.732;9.148;2022-12-07T07:15:56;2.80;99.90
4828;DHT22;2428;48.732;9.148;2022-12-07T07:18:22;2.80;99.90
4828;DHT22;2428;48.732;9.148;2022-12-07T07:20:47;2.90;99.90
4828;DHT22;2428;48.732;9.148;2022-12-07T07:23:13;2.90;99.90
4828;DHT22;2428;48.732;9.148;2022-12-07T07:25:39;3.00;99.90
4828;DHT22;2428;48.732;9.148;2022-12-07T07:28:05;3.10;99.90
4828;DHT22;2428;48.732;9.148;2022-12-07T07:30:31;3.10;99.90
4828;DHT22;2428;48.732;9.148;2022-12-07T07:33:01;3.10;99.90
4828;DHT22;2428;48.732;9.148;2022-12-07T07:35:28;3.10;99.90
4828;DHT22;2428;48.732;9.148;2022-12-07T07:37:53;3.10;99.90
4828;DHT22;2428;48.732;9.148;2022-12-07T07:40:19;3.20;99.90
4828;DHT22;2428;48.732;9.148;2022-12-07T07:42:50;3.20;99.90
4828;DHT22;2428;48.732;9.148;2022-12-07T07:45:17;3.20;99.90
4828;DHT22;2428;48.732;9.148;2022-12-07T07:47:42;3.30;99.90
4828;DHT22;2428;48.732;9.148;2022-12-07T07:50:08;3.30;99.90
4828;DHT22;2428;48.732;9.148;2022-12-07T07:52:34;3.30;99.90
4828;DHT22;2428;48.732;9.148;2022-12-07T07:54:59;3.30;99.90
4828;DHT22;2428;48.732;9.148;2022-12-07T07:57:25;3.40;99.90
4828;DHT22;2428;48.732;9.148;2022-12-07T07:59:51;3.40;99.90
4828;DHT22;2428;48.732;9.148;2022-12-07T08:02:18;3.40;99.90
4828;DHT22;2428;48.732;9.148;2022-12-07T08:04:45;3.40;99.90
4828;DHT22;2428;48.732;9.148;2022-12-07T08:07:11;3.40;99.90
4828;DHT22;2428;48.732;9.148;2022-12-07T08:09:37;3.30;99.90
4828;DHT22;2428;48.732;9.148;2022-12-07T08:12:03;3.30;99.90
4828;DHT22;2428;48.732;9.148;2022-12-07T08:14:28;3.30;99.90
4828;DHT22;2428;48.732;9.148;2022-12-07T08:16:54;3.30;99.90
4828;DHT22;2428;48.732;9.148;2022-12-07T08:19:20;3.30;99.90
4828;DHT22;2428;48.732;9.148;2022-12-07T08:21:46;3.40;99.90
4828;DHT22;2428;48.732;9.148;2022-12-07T08:24:12;3.40;99.90
4828;DHT22;2428;48.732;9.148;2022-12-07T08:26:37;3.50;99.90
4828;DHT22;2428;48.732;9.148;2022-12-07T08:29:03;3.50;99.90
4828;DHT22;2428;48.732;9.148;2022-12-07T08:31:28;3.50;99.90
4828;DHT22;2428;48.732;9.148;2022-12-07T08:33:54;3.60;99.90
4828;DHT22;2428;48.732;9.148;2022-12-07T08:36:20;3.70;99.90
4828;DHT22;2428;48.732;9.148;2022-12-07T08:38:47;3.70;99.90
4828;DHT22;2428;48.732;9.148;2022-12-07T08:41:12;3.70;99.90
4828;DHT22;2428;48.732;9.148;2022-12-07T08:43:38;3.70;99.90
4828;DHT22;2428;48.732;9.148;2022-12-07T08:46:13;3.70;99.90
4828;DHT22;2428;48.732;9.148;2022-12-07T08:48:52;3.70;99.90
4828;DHT22;2428;48.732;9.148;2022-12-07T08:51:21;3.80;99.90
4828;DHT22;2428;48.732;9.148;2022-12-07T08:53:47;3.90;99.90
4828;DHT22;2428;48.732;9.148;2022-12-07T08:56:13;3.90;99.90
4828;DHT22;2428;48.732;9.148;2022-12-07T08:58:39;3.90;99.90
4828;DHT22;2428;48.732;9.148;2022-12-07T09:01:05;3.90;99.90
4828;DHT22;2428;48.732;9.148;2022-12-07T09:03:31;3.90;99.90
4828;DHT22;2428;48.732;9.148;2022-12-07T09:05:58;3.90;99.90
4828;DHT22;2428;48.732;9.148;2022-12-07T09:08:30;3.90;99.90
4828;DHT22;2428;48.732;9.148;2022-12-07T09:10:56;4.00;99.90
4828;DHT22;2428;48.732;9.148;2022-12-07T09:13:22;3.90;99.90
4828;DHT22;2428;48.732;9.148;2022-12-07T09:15:47;3.90;99.90
4828;DHT22;2428;48.732;9.148;2022-12-07T09:18:13;4.00;99.90
4828;DHT22;2428;48.732;9.148;2022-12-07T09:20:39;3.90;99.90
4828;DHT22;2428;48.732;9.148;2022-12-07T09:23:06;3.90;99.90
4828;DHT22;2428;48.732;9.148;2022-12-07T09:25:33;3.90;99.90
4828;DHT22;2428;48.732;9.148;2022-12-07T09:27:59;3.90;99.90
4828;DHT22;2428;48.732;9.148;2022-12-07T09:30:26;3.90;99.90
4828;DHT22;2428;48.732;9.148;2022-12-07T09:32:56;4.00;99.90
4828;DHT22;2428;48.732;9.148;2022-12-07T09:35:22;3.90;99.90
4828;DHT22;2428;48.732;9.148;2022-12-07T09:37:48;3.90;99.90
4828;DHT22;2428;48.732;9.148;2022-12-07T09:40:15;3.70;99.90
4828;DHT22;2428;48.732;9.148;2022-12-07T09:42:45;3.80;99.90
4828;DHT22;2428;48.732;9.148;2022-12-07T09:45:38;3.80;99.90
4828;DHT22;2428;48.732;9.148;2022-12-07T09:48:03;3.80;99.90
4828;DHT22;2428;48.732;9.148;2022-12-07T09:50:30;3.80;99.90
4828;DHT22;2428;48.732;9.148;2022-12-07T09:53:09;3.90;99.90
4828;DHT22;2428;48.732;9.148;2022-12-07T09:55:38;4.00;99.90
4828;DHT22;2428;48.732;9.148;2022-12-07T09:58:05;4.10;99.90
4828;DHT22;2428;48.732;9.148;2022-12-07T10:00:30;4.10;99.90
4828;DHT22;2428;48.732;9.148;2022-12-07T10:03:01;4.20;99.90
4828;DHT22;2428;48.732;9.148;2022-12-07T10:05:34;4.20;99.90
4828;DHT22;2428;48.732;9.148;2022-12-07T10:08:01;4.20;99.90
4828;DHT22;2428;48.732;9.148;2022-12-07T10:10:31;4.20;99.90
4828;DHT22;2428;48.732;9.148;2022-12-07T10:13:33;4.30;99.90
4828;DHT22;2428;48.732;9.148;2022-12-07T10:15:56;4.30;99.90
4828;DHT22;2428;48.732;9.148;2022-12-07T10:23:26;4.40;99.90
4828;DHT22;2428;48.732;9.148;2022-12-07T10:25:51;4.50;99.90
4828;DHT22;2428;48.732;9.148;2022-12-07T10:28:20;4.70;99.90
4828;DHT22;2428;48.732;9.148;2022-12-07T10:30:56;4.60;99.90
4828;DHT22;2428;48.732;9.148;2022-12-07T10:33:38;4.60;99.90
4828;DHT22;2428;48.732;9.148;2022-12-07T10:36:18;4.40;99.90
4828;DHT22;2428;48.732;9.148;2022-12-07T10:38:47;4.40;99.90
4828;DHT22;2428;48.732;9.148;2022-12-07T10:41:12;4.40;99.90
4828;DHT22;2428;48.732;9.148;2022-12-07T10:43:50;4.40;99.90
4828;DHT22;2428;48.732;9.148;2022-12-07T10:46:37;4.40;99.90
4828;DHT22;2428;48.732;9.148;2022-12-07T10:49:38;4.40;99.90
4828;DHT22;2428;48.732;9.148;2022-12-07T11:01:18;4.40;99.90
4828;DHT22;2428;48.732;9.148;2022-12-07T11:06:42;4.50;99.90
4828;DHT22;2428;48.732;9.148;2022-12-07T11:12:06;4.40;99.90
4828;DHT22;2428;48.732;9.148;2022-12-07T11:14:56;4.40;99.90
4828;DHT22;2428;48.732;9.148;2022-12-07T11:20:39;4.40;99.90
4828;DHT22;2428;48.732;9.148;2022-12-07T11:28:29;4.60;99.90
4828;DHT22;2428;48.732;9.148;2022-12-07T11:31:21;4.60;99.90
4828;DHT22;2428;48.732;9.148;2022-12-07T11:33:59;4.60;99.90
4828;DHT22;2428;48.732;9.148;2022-12-07T11:36:50;4.40;99.90
4828;DHT22;2428;48.732;9.148;2022-12-07T11:39:39;4.50;99.90
4828;DHT22;2428;48.732;9.148;2022-12-07T11:42:14;4.40;99.90
4828;DHT22;2428;48.732;9.148;2022-12-07T11:45:31;4.40;99.90
4828;DHT22;2428;48.732;9.148;2022-12-07T11:47:44;4.50;99.90
4828;DHT22;2428;48.732;9.148;2022-12-07T11:50:26;4.50;99.90
4828;DHT22;2428;48.732;9.148;2022-12-07T11:53:00;4.50;99.90
4828;DHT22;2428;48.732;9.148;2022-12-07T11:55:55;4.50;99.90
4828;DHT22;2428;48.732;9.148;2022-12-07T11:58:46;4.40;99.90
4828;DHT22;2428;48.732;9.148;2022-12-07T12:03:56;4.60;99.90
4828;DHT22;2428;48.732;9.148;2022-12-07T12:06:23;4.70;99.90
4828;DHT22;2428;48.732;9.148;2022-12-07T12:17:14;4.80;99.90
4828;DHT22;2428;48.732;9.148;2022-12-07T12:22:42;4.80;99.90
4828;DHT22;2428;48.732;9.148;2022-12-07T12:25:45;4.70;99.90
4828;DHT22;2428;48.732;9.148;2022-12-07T12:33:46;4.50;99.90
4828;DHT22;2428;48.732;9.148;2022-12-07T12:46:55;4.60;99.90
4828;DHT22;2428;48.732;9.148;2022-12-07T12:54:21;4.70;99.90
4828;DHT22;2428;48.732;9.148;2022-12-07T13:02:34;4.60;99.90
4828;DHT22;2428;48.732;9.148;2022-12-07T13:20:49;4.50;99.90
4828;DHT22;2428;48.732;9.148;2022-12-07T13:23:20;4.50;99.90
4828;DHT22;2428;48.732;9.148;2022-12-07T13:28:44;4.60;99.90
4828;DHT22;2428;48.732;9.148;2022-12-07T13:31:19;4.60;99.90
4828;DHT22;2428;48.732;9.148;2022-12-07T13:33:47;4.70;99.90
4828;DHT22;2428;48.732;9.148;2022-12-07T13:36:25;4.60;99.90
4828;DHT22;2428;48.732;9.148;2022-12-07T13:38:59;4.70;99.90
4828;DHT22;2428;48.732;9.148;2022-12-07T13:41:27;4.70;99.90
4828;DHT22;2428;48.732;9.148;2022-12-07T13:44:23;4.60;99.90
4828;DHT22;2428;48.732;9.148;2022-12-07T13:47:15;4.60;99.90
4828;DHT22;2428;48.732;9.148;2022-12-07T13:49:54;4.70;99.90
4828;DHT22;2428;48.732;9.148;2022-12-07T13:52:23;4.60;99.90
4828;DHT22;2428;48.732;9.148;2022-12-07T13:55:11;4.70;99.90
4828;DHT22;2428;48.732;9.148;2022-12-07T13:57:39;4.70;99.90
4828;DHT22;2428;48.732;9.148;2022-12-07T14:00:13;4.60;99.90
4828;DHT22;2428;48.732;9.148;2022-12-07T14:05:28;4.60;99.90
4828;DHT22;2428;48.732;9.148;2022-12-07T14:08:05;4.60;99.90
4828;DHT22;2428;48.732;9.148;2022-12-07T14:22:08;4.50;99.90
4828;DHT22;2428;48.732;9.148;2022-12-07T14:24:43;4.40;99.90
4828;DHT22;2428;48.732;9.148;2022-12-07T14:27:23;4.30;99.90
4828;DHT22;2428;48.732;9.148;2022-12-07T14:29:51;4.30;99.90
4828;DHT22;2428;48.732;9.148;2022-12-07T14:32:25;4.40;99.90
4828;DHT22;2428;48.732;9.148;2022-12-07T14:35:11;4.40;99.90
4828;DHT22;2428;48.732;9.148;2022-12-07T14:37:38;4.40;99.90
4828;DHT22;2428;48.732;9.148;2022-12-07T14:40:05;4.50;99.90
4828;DHT22;2428;48.732;9.148;2022-12-07T14:42:31;4.40;99.90
4828;DHT22;2428;48.732;9.148;2022-12-07T14:44:58;4.40;99.90
4828;DHT22;2428;48.732;9.148;2022-12-07T14:47:25;4.40;99.90
4828;DHT22;2428;48.732;9.148;2022-12-07T14:49:52;4.50;99.90
4828;DHT22;2428;48.732;9.148;2022-12-07T14:52:20;4.40;99.90
4828;DHT22;2428;48.732;9.148;2022-12-07T14:54:46;4.50;99.90
4828;DHT22;2428;48.732;9.148;2022-12-07T14:57:12;4.60;99.90
4828;DHT22;2428;48.732;9.148;2022-12-07T14:59:38;4.60;99.90
4828;DHT22;2428;48.732;9.148;2022-12-07T15:02:04;4.60;99.90
4828;DHT22;2428;48.732;9.148;2022-12-07T15:04:30;4.50;99.90
4828;DHT22;2428;48.732;9.148;2022-12-07T15:07:01;4.50;99.90
4828;DHT22;2428;48.732;9.148;2022-12-07T15:09:26;4.50;99.90
4828;DHT22;2428;48.732;9.148;2022-12-07T15:11:52;4.50;99.90
4828;DHT22;2428;48.732;9.148;2022-12-07T15:14:17;4.50;99.90
4828;DHT22;2428;48.732;9.148;2022-12-07T15:16:44;4.50;99.90
4828;DHT22;2428;48.732;9.148;2022-12-07T15:21:41;4.50;99.90
4828;DHT22;2428;48.732;9.148;2022-12-07T15:24:09;4.50;99.90
4828;DHT22;2428;48.732;9.148;2022-12-07T15:26:35;4.50;99.90
4828;DHT22;2428;48.732;9.148;2022-12-07T15:29:00;4.50;99.90
4828;DHT22;2428;48.732;9.148;2022-12-07T15:31:26;4.50;99.90
4828;DHT22;2428;48.732;9.148;2022-12-07T15:33:51;4.40;99.90
4828;DHT22;2428;48.732;9.148;2022-12-07T15:36:25;4.50;99.90
4828;DHT22;2428;48.732;9.148;2022-12-07T15:38:51;4.40;99.90
4828;DHT22;2428;48.732;9.148;2022-12-07T15:41:17;4.40;99.90
4828;DHT22;2428;48.732;9.148;2022-12-07T15:43:43;4.30;99.90
4828;DHT22;2428;48.732;9.148;2022-12-07T15:46:32;4.20;99.90
4828;DHT22;2428;48.732;9.148;2022-12-07T15:48:58;4.10;99.90
4828;DHT22;2428;48.732;9.148;2022-12-07T15:51:23;4.10;99.90
4828;DHT22;2428;48.732;9.148;2022-12-07T15:53:49;4.10;99.90
4828;DHT22;2428;48.732;9.148;2022-12-07T15:56:14;4.00;99.90
4828;DHT22;2428;48.732;9.148;2022-12-07T15:58:40;4.00;99.90
4828;DHT22;2428;48.732;9.148;2022-12-07T16:01:17;3.90;99.90
4828;DHT22;2428;48.732;9.148;2022-12-07T16:03:44;3.90;99.90
4828;DHT22;2428;48.732;9.148;2022-12-07T16:06:10;3.80;99.90
4828;DHT22;2428;48.732;9.148;2022-12-07T16:08:36;3.80;99.90
4828;DHT22;2428;48.732;9.148;2022-12-07T16:11:06;3.70;99.90
4828;DHT22;2428;48.732;9.148;2022-12-07T16:13:32;3.60;99.90
4828;DHT22;2428;48.732;9.148;2022-12-07T16:15:57;3.50;99.90
4828;DHT22;2428;48.732;9.148;2022-12-07T16:18:23;3.50;99.90
4828;DHT22;2428;48.732;9.148;2022-12-07T16:20:49;3.50;99.90
4828;DHT22;2428;48.732;9.148;2022-12-07T16:23:15;3.50;99.90
4828;DHT22;2428;48.732;9.148;2022-12-07T16:25:40;3.50;99.90
4828;DHT22;2428;48.732;9.148;2022-12-07T16:28:06;3.50;99.90
4828;DHT22;2428;48.732;9.148;2022-12-07T16:30:33;3.50;99.90
4828;DHT22;2428;48.732;9.148;2022-12-07T16:32:58;3.50;99.90
4828;DHT22;2428;48.732;9.148;2022-12-07T16:35:24;3.50;99.90
4828;DHT22;2428;48.732;9.148;2022-12-07T16:37:50;3.40;99.90
4828;DHT22;2428;48.732;9.148;2022-12-07T16:40:15;3.50;99.90
4828;DHT22;2428;48.732;9.148;2022-12-07T16:42:41;3.50;99.90
4828;DHT22;2428;48.732;9.148;2022-12-07T16:45:07;3.50;99.90
4828;DHT22;2428;48.732;9.148;2022-12-07T16:47:32;3.50;99.90
4828;DHT22;2428;48.732;9.148;2022-12-07T16:49:58;3.60;99.90
4828;DHT22;2428;48.732;9.148;2022-12-07T16:52:23;3.50;99.90
4828;DHT22;2428;48.732;9.148;2022-12-07T16:54:49;3.50;99.90
4828;DHT22;2428;48.732;9.148;2022-12-07T16:57:16;3.50;99.90
4828;DHT22;2428;48.732;9.148;2022-12-07T16:59:42;3.30;99.90
4828;DHT22;2428;48.732;9.148;2022-12-07T17:02:11;3.30;99.90
4828;DHT22;2428;48.732;9.148;2022-12-07T17:04:36;3.30;99.90
4828;DHT22;2428;48.732;9.148;2022-12-07T17:07:05;3.30;99.90
4828;DHT22;2428;48.732;9.148;2022-12-07T17:09:31;3.30;99.90
4828;DHT22;2428;48.732;9.148;2022-12-07T17:11:56;3.30;99.90
4828;DHT22;2428;48.732;9.148;2022-12-07T17:14:22;3.30;99.90
4828;DHT22;2428;48.732;9.148;2022-12-07T17:17:06;3.30;99.90
4828;DHT22;2428;48.732;9.148;2022-12-07T17:19:32;3.20;99.90
4828;DHT22;2428;48.732;9.148;2022-12-07T17:21:58;3.20;99.90
4828;DHT22;2428;48.732;9.148;2022-12-07T17:24:23;3.20;99.90
4828;DHT22;2428;48.732;9.148;2022-12-07T17:26:49;3.10;99.90
4828;DHT22;2428;48.732;9.148;2022-12-07T17:29:16;3.20;99.90
4828;DHT22;2428;48.732;9.148;2022-12-07T17:31:42;3.20;99.90
4828;DHT22;2428;48.732;9.148;2022-12-07T17:34:12;3.10;99.90
4828;DHT22;2428;48.732;9.148;2022-12-07T17:36:39;3.10;99.90
4828;DHT22;2428;48.732;9.148;2022-12-07T17:39:09;3.10;99.90
4828;DHT22;2428;48.732;9.148;2022-12-07T17:41:35;3.10;99.90
4828;DHT22;2428;48.732;9.148;2022-12-07T17:44:19;3.10;99.90
4828;DHT22;2428;48.732;9.148;2022-12-07T17:46:48;3.10;99.90
4828;DHT22;2428;48.732;9.148;2022-12-07T17:49:13;3.10;99.90
4828;DHT22;2428;48.732;9.148;2022-12-07T17:51:39;3.10;99.90
4828;DHT22;2428;48.732;9.148;2022-12-07T17:54:24;3.20;99.90
4828;DHT22;2428;48.732;9.148;2022-12-07T17:56:49;3.20;99.90
4828;DHT22;2428;48.732;9.148;2022-12-07T17:59:15;3.20;99.90
4828;DHT22;2428;48.732;9.148;2022-12-07T18:01:41;3.10;99.90
4828;DHT22;2428;48.732;9.148;2022-12-07T18:04:07;3.20;99.90
4828;DHT22;2428;48.732;9.148;2022-12-07T18:06:33;3.20;99.90
4828;DHT22;2428;48.732;9.148;2022-12-07T18:09:00;3.10;99.90
4828;DHT22;2428;48.732;9.148;2022-12-07T18:11:25;3.20;99.90
4828;DHT22;2428;48.732;9.148;2022-12-07T18:13:51;3.20;99.90
4828;DHT22;2428;48.732;9.148;2022-12-07T18:16:21;3.10;99.90
4828;DHT22;2428;48.732;9.148;2022-12-07T18:18:47;3.10;99.90
4828;DHT22;2428;48.732;9.148;2022-12-07T18:21:17;3.20;99.90
4828;DHT22;2428;48.732;9.148;2022-12-07T18:23:45;3.20;99.90
4828;DHT22;2428;48.732;9.148;2022-12-07T18:26:11;3.20;99.90
4828;DHT22;2428;48.732;9.148;2022-12-07T18:28:41;3.30;99.90
4828;DHT22;2428;48.732;9.148;2022-12-07T18:31:07;3.20;99.90
4828;DHT22;2428;48.732;9.148;2022-12-07T18:33:33;3.20;99.90
4828;DHT22;2428;48.732;9.148;2022-12-07T18:36:00;3.30;99.90
4828;DHT22;2428;48.732;9.148;2022-12-07T18:38:27;3.20;99.90
4828;DHT22;2428;48.732;9.148;2022-12-07T18:40:53;3.20;99.90
4828;DHT22;2428;48.732;9.148;2022-12-07T18:43:19;3.20;99.90
4828;DHT22;2428;48.732;9.148;2022-12-07T18:45:45;3.30;99.90
4828;DHT22;2428;48.732;9.148;2022-12-07T18:48:15;3.30;99.90